createdAt,value
2022-12-23T00:00:39.920Z,45.88
2022-12-23T00:03:07.143Z,47.60
2022-12-23T00:05:41.067Z,47.42
2022-12-23T00:08:08.597Z,52.92
2022-12-23T00:10:39.123Z,47.55
2022-12-23T00:13:24.446Z,46.03
2022-12-23T00:16:03.931Z,46.63
2022-12-23T00:18:30.733Z,47.97
2022-12-23T00:21:08.778Z,44.35
2022-12-23T00:23:38.905Z,48.95
2022-12-23T00:26:13.495Z,48.25
2022-12-23T00:28:42.482Z,46.75
2022-12-23T00:31:10.320Z,50.47
2022-12-23T00:33:42.614Z,54.97
2022-12-23T00:36:18.705Z,54.45
2022-12-23T00:39:07.025Z,51.95
2022-12-23T00:41:52.493Z,57.70
2022-12-23T00:44:19.211Z,50.85
2022-12-23T00:46:45.973Z,54.53
2022-12-23T00:49:36.215Z,53.10
2022-12-23T00:52:04.430Z,53.42
2022-12-23T00:54:35.717Z,52.90
2022-12-23T00:57:04.644Z,58.25
2022-12-23T00:59:31.616Z,59.13
2022-12-23T01:02:16.961Z,56.55
2022-12-23T01:05:02.096Z,49.50
2022-12-23T01:07:33.209Z,53.88
2022-12-23T01:10:02.166Z,55.83
2022-12-23T01:12:30.937Z,51.28
2022-12-23T01:14:59.786Z,56.55
2022-12-23T01:17:31.122Z,56.10
2022-12-23T01:19:57.730Z,59.35
2022-12-23T01:22:26.537Z,54.65
2022-12-23T01:24:55.219Z,53.20
2022-12-23T01:27:24.331Z,50.33
2022-12-23T01:29:55.642Z,53.65
2022-12-23T01:32:22.246Z,59.38
2022-12-23T01:34:48.786Z,55.90
2022-12-23T01:37:15.360Z,48.63
2022-12-23T01:39:44.131Z,53.80
2022-12-23T01:42:37.820Z,43.53
2022-12-23T01:45:13.739Z,44.40
2022-12-23T01:47:53.377Z,44.67
2022-12-23T01:50:22.976Z,50.72
2022-12-23T01:52:51.752Z,55.95
2022-12-23T01:55:26.265Z,53.10
2022-12-23T01:57:56.268Z,51.92
2022-12-23T02:00:43.735Z,73.78
2022-12-23T02:03:29.344Z,66.35
2022-12-23T02:06:17.161Z,56.85
2022-12-23T02:11:56.051Z,45.25
2022-12-23T02:14:56.393Z,46.20
2022-12-23T02:17:29.515Z,56.75
2022-12-23T02:20:01.332Z,56.95
2022-12-23T02:23:05.180Z,56.88
2022-12-23T02:25:45.819Z,62.13
2022-12-23T02:28:33.809Z,65.07
2022-12-23T02:31:10.647Z,69.75
2022-12-23T02:34:22.281Z,66.00
2022-12-23T02:37:35.481Z,74.00
2022-12-23T02:44:09.060Z,85.43
2022-12-23T02:47:03.357Z,82.18
2022-12-23T02:49:38.336Z,76.07
2022-12-23T02:52:14.218Z,80.07
2022-12-23T02:55:07.773Z,94.38
2022-12-23T02:57:40.157Z,116.70
2022-12-23T03:00:08.149Z,79.63
2022-12-23T03:02:39.643Z,91.10
2022-12-23T03:05:25.798Z,89.88
2022-12-23T03:07:59.403Z,97.22
2022-12-23T03:10:43.233Z,80.15
2022-12-23T03:13:27.083Z,82.75
2022-12-23T03:16:11.731Z,78.85
2022-12-23T03:18:56.494Z,79.60
2022-12-23T03:21:39.065Z,82.93
2022-12-23T03:24:29.849Z,79.55
2022-12-23T03:27:28.677Z,77.10
2022-12-23T03:30:04.983Z,65.18
2022-12-23T03:32:46.961Z,69.00
2022-12-23T03:35:22.732Z,90.63
2022-12-23T03:37:54.798Z,80.35
2022-12-23T03:40:28.539Z,85.15
2022-12-23T03:43:04.465Z,72.70
2022-12-23T03:45:41.368Z,97.32
2022-12-23T03:48:36.888Z,93.40
2022-12-23T03:51:11.538Z,73.97
2022-12-23T03:53:47.985Z,86.07
2022-12-23T03:56:28.485Z,73.85
2022-12-23T03:58:58.073Z,81.57
2022-12-23T04:01:42.053Z,96.50
2022-12-23T04:04:23.401Z,78.00
2022-12-23T04:07:18.596Z,81.53
2022-12-23T04:09:45.237Z,98.88
2022-12-23T04:12:17.856Z,116.20
2022-12-23T04:14:49.140Z,94.78
2022-12-23T04:17:17.247Z,92.68
2022-12-23T04:19:48.105Z,131.98
2022-12-23T04:22:15.793Z,167.77
2022-12-23T04:24:45.111Z,116.60
2022-12-23T04:29:39.412Z,109.85
2022-12-23T04:32:10.992Z,113.78
2022-12-23T04:34:39.895Z,117.57
2022-12-23T04:37:06.496Z,93.20
2022-12-23T04:39:36.011Z,115.97
2022-12-23T04:42:02.596Z,106.95
2022-12-23T04:44:29.180Z,111.78
2022-12-23T04:46:58.247Z,89.55
2022-12-23T04:49:27.117Z,107.15
2022-12-23T04:51:56.036Z,114.20
2022-12-23T04:54:46.080Z,103.32
2022-12-23T04:57:13.372Z,108.40
2022-12-23T04:59:44.775Z,120.75
2022-12-23T05:02:11.425Z,103.03
2022-12-23T05:04:40.875Z,96.20
2022-12-23T05:09:36.311Z,100.22
2022-12-23T05:12:02.922Z,95.47
2022-12-23T05:14:36.556Z,103.40
2022-12-23T05:17:07.926Z,108.82
2022-12-23T05:19:34.911Z,105.85
2022-12-23T05:22:01.434Z,94.18
2022-12-23T05:24:30.978Z,92.35
2022-12-23T05:27:00.202Z,111.85
2022-12-23T05:29:31.919Z,56.45
2022-12-23T05:31:58.627Z,93.05
2022-12-23T05:34:25.310Z,60.75
2022-12-23T05:36:54.847Z,78.22
2022-12-23T05:39:26.181Z,67.68
2022-12-23T05:41:52.711Z,71.00
2022-12-23T05:44:19.242Z,59.05
2022-12-23T05:46:48.025Z,60.75
2022-12-23T05:49:17.647Z,52.13
2022-12-23T05:51:46.782Z,58.85
2022-12-23T05:54:13.408Z,56.47
2022-12-23T05:56:40.036Z,60.25
2022-12-23T05:59:10.598Z,67.82
2022-12-23T06:01:37.276Z,63.35
2022-12-23T06:04:04.247Z,64.60
2022-12-23T06:06:33.201Z,54.70
2022-12-23T06:09:02.128Z,47.60
2022-12-23T06:11:28.784Z,55.00
2022-12-23T06:13:55.467Z,59.95
2022-12-23T06:16:26.601Z,58.72
2022-12-23T06:18:58.347Z,48.65
2022-12-23T06:21:30.766Z,54.75
2022-12-23T06:23:59.553Z,61.67
2022-12-23T06:26:29.211Z,69.82
2022-12-23T06:28:58.378Z,49.63
2022-12-23T06:31:29.761Z,54.35
2022-12-23T06:34:01.965Z,50.78
2022-12-23T06:36:31.091Z,52.85
2022-12-23T06:38:57.670Z,60.40
2022-12-23T06:41:26.440Z,71.32
2022-12-23T06:43:54.631Z,59.60
2022-12-23T06:46:23.656Z,52.78
2022-12-23T06:48:50.295Z,52.85
2022-12-23T06:51:19.107Z,53.30
2022-12-23T06:53:45.645Z,42.75
2022-12-23T06:56:14.578Z,47.60
2022-12-23T06:58:41.142Z,78.38
2022-12-23T07:01:10.569Z,50.47
2022-12-23T07:03:40.495Z,35.00
2022-12-23T07:06:07.302Z,40.72
2022-12-23T07:08:33.975Z,43.17
2022-12-23T07:11:01.843Z,41.20
2022-12-23T07:13:28.526Z,40.70
2022-12-23T07:15:57.344Z,44.85
2022-12-23T07:18:24.532Z,46.10
2022-12-23T07:20:53.581Z,53.22
2022-12-23T07:23:24.720Z,54.60
2022-12-23T07:25:51.329Z,42.30
2022-12-23T07:28:18.040Z,46.72
2022-12-23T07:30:44.889Z,45.58
2022-12-23T07:33:11.481Z,53.25
2022-12-23T07:35:38.116Z,49.38
2022-12-23T07:38:04.627Z,41.03
2022-12-23T07:40:31.155Z,42.00
2022-12-23T07:43:01.041Z,43.05
2022-12-23T07:45:31.496Z,39.30
2022-12-23T07:47:59.943Z,37.22
2022-12-23T07:50:29.167Z,56.08
2022-12-23T07:52:57.932Z,41.95
2022-12-23T07:55:24.491Z,56.13
2022-12-23T07:57:52.494Z,47.05
2022-12-23T08:00:23.060Z,62.15
2022-12-23T08:02:51.969Z,47.88
2022-12-23T08:05:21.252Z,49.78
2022-12-23T08:07:50.050Z,43.45
2022-12-23T08:10:19.287Z,50.53
2022-12-23T08:12:47.943Z,49.40
2022-12-23T08:15:17.075Z,45.33
2022-12-23T08:17:43.733Z,57.28
2022-12-23T08:20:13.107Z,57.67
2022-12-23T08:25:06.801Z,54.35
2022-12-23T08:27:36.330Z,52.72
2022-12-23T08:30:03.271Z,51.63
2022-12-23T08:32:29.916Z,49.15
2022-12-23T08:35:00.201Z,44.03
2022-12-23T08:37:26.839Z,52.55
2022-12-23T08:39:53.434Z,60.95
2022-12-23T08:42:20.130Z,49.78
2022-12-23T08:44:46.812Z,56.90
2022-12-23T08:47:15.932Z,49.00
2022-12-23T08:49:47.307Z,48.65
2022-12-23T08:52:19.454Z,52.40
2022-12-23T08:54:48.671Z,50.35
2022-12-23T08:57:15.535Z,55.08
2022-12-23T08:59:42.230Z,63.63
2022-12-23T09:02:15.066Z,67.30
2022-12-23T09:04:41.843Z,66.25
2022-12-23T09:07:10.604Z,68.35
2022-12-23T09:09:48.624Z,74.57
2022-12-23T09:12:17.769Z,79.72
2022-12-23T09:14:47.923Z,67.30
2022-12-23T09:17:14.606Z,69.53
2022-12-23T09:19:48.605Z,71.70
2022-12-23T09:22:21.253Z,60.75
2022-12-23T09:26:13.616Z,50.75
2022-12-23T09:29:36.821Z,57.40
2022-12-23T09:35:35.466Z,50.92
2022-12-23T09:38:04.761Z,54.33
2022-12-23T09:40:34.829Z,58.65
2022-12-23T09:43:10.479Z,63.38
2022-12-23T09:46:10.914Z,56.70
2022-12-23T09:48:47.856Z,60.88
2022-12-23T09:51:22.443Z,66.45
2022-12-23T09:54:31.461Z,61.55
2022-12-23T09:57:29.111Z,60.17
2022-12-23T09:59:58.240Z,58.65
2022-12-23T10:02:39.927Z,52.95
2022-12-23T10:08:42.218Z,69.22
2022-12-23T10:11:39.334Z,51.92
2022-12-23T10:14:46.859Z,48.45
2022-12-23T10:24:44.860Z,49.17
2022-12-23T10:27:40.252Z,55.72
2022-12-23T10:32:10.823Z,48.65
2022-12-23T10:34:34.915Z,52.97
2022-12-23T10:37:17.803Z,46.22
2022-12-23T10:39:53.285Z,48.80
2022-12-23T10:45:54.799Z,67.90
2022-12-23T10:49:04.078Z,53.28
2022-12-23T10:51:46.083Z,51.40
2022-12-23T10:54:17.946Z,75.05
2022-12-23T10:56:45.015Z,51.88
2022-12-23T10:59:19.312Z,58.17
2022-12-23T11:01:54.552Z,66.93
2022-12-23T11:04:33.681Z,64.70
2022-12-23T11:07:42.117Z,60.97
2022-12-23T11:10:02.752Z,59.60
2022-12-23T11:12:47.574Z,64.88
2022-12-23T11:15:39.824Z,65.70
2022-12-23T11:18:12.621Z,60.72
2022-12-23T11:20:44.517Z,50.80
2022-12-23T11:23:28.126Z,57.75
2022-12-23T11:26:03.501Z,57.35
2022-12-23T11:28:38.366Z,67.90
2022-12-23T11:31:17.182Z,57.03
2022-12-23T11:33:56.027Z,62.00
2022-12-23T11:36:25.464Z,64.68
2022-12-23T11:38:54.559Z,77.95
2022-12-23T11:41:27.472Z,64.65
2022-12-23T11:44:12.593Z,66.80
2022-12-23T11:46:41.493Z,60.20
2022-12-23T11:49:14.315Z,60.60
2022-12-23T11:51:43.721Z,56.67
2022-12-23T11:54:20.793Z,63.65
2022-12-23T11:56:56.453Z,55.97
2022-12-23T11:59:43.592Z,75.03
2022-12-23T12:02:29.017Z,61.10
2022-12-23T12:05:02.392Z,70.55
2022-12-23T12:07:33.185Z,58.33
2022-12-23T12:10:03.226Z,71.60
2022-12-23T12:12:30.525Z,64.63
2022-12-23T12:15:00.297Z,65.80
2022-12-23T12:17:42.148Z,57.58
2022-12-23T12:20:23.896Z,53.10
2022-12-23T12:23:07.963Z,68.40
2022-12-23T12:25:46.868Z,56.22
2022-12-23T12:28:33.161Z,75.20
2022-12-23T12:31:17.285Z,55.65
2022-12-23T12:34:03.704Z,59.92
2022-12-23T12:36:52.095Z,59.70
2022-12-23T12:39:36.069Z,61.22
2022-12-23T12:42:16.812Z,54.13
2022-12-23T12:45:00.365Z,62.17
2022-12-23T12:47:53.187Z,65.95
2022-12-23T12:50:36.447Z,55.10
2022-12-23T12:53:26.962Z,56.60
2022-12-23T12:56:01.683Z,59.67
2022-12-23T12:58:28.646Z,61.97
2022-12-23T13:01:00.713Z,62.38
2022-12-23T13:03:57.114Z,61.20
2022-12-23T13:06:29.805Z,66.55
2022-12-23T13:09:08.934Z,76.15
2022-12-23T13:12:00.164Z,63.28
2022-12-23T13:14:35.385Z,70.47
2022-12-23T13:17:28.495Z,66.68
2022-12-23T13:20:09.154Z,66.05
2022-12-23T13:22:37.416Z,60.33
2022-12-23T13:25:10.380Z,66.60
2022-12-23T13:28:08.086Z,63.03
2022-12-23T13:30:59.985Z,64.85
2022-12-23T13:33:44.465Z,80.57
2022-12-23T13:36:37.649Z,63.60
2022-12-23T13:39:28.661Z,63.25
2022-12-23T13:42:05.233Z,69.35
2022-12-23T13:44:37.711Z,53.80
2022-12-23T13:47:33.294Z,61.55
2022-12-23T13:50:16.956Z,71.97
2022-12-23T13:52:49.812Z,64.85
2022-12-23T13:55:53.291Z,69.25
2022-12-23T13:58:28.427Z,66.00
2022-12-23T14:01:08.336Z,68.85
2022-12-23T14:03:43.854Z,67.65
2022-12-23T14:06:28.049Z,71.47
2022-12-23T14:09:01.971Z,73.80
2022-12-23T14:11:33.538Z,65.10
2022-12-23T14:14:47.059Z,61.75
2022-12-23T14:17:32.185Z,75.05
2022-12-23T14:20:17.496Z,70.55
2022-12-23T14:22:52.275Z,68.35
2022-12-23T14:29:51.832Z,56.05
2022-12-23T14:32:26.048Z,57.35
2022-12-23T14:35:22.726Z,66.07
2022-12-23T14:38:10.526Z,61.88
2022-12-23T14:40:39.480Z,61.38
2022-12-23T14:43:51.405Z,60.67
2022-12-23T14:46:42.343Z,77.22
2022-12-23T14:49:38.848Z,82.43
2022-12-23T14:52:54.663Z,78.95
2022-12-23T14:56:32.469Z,69.28
2022-12-23T14:58:58.963Z,75.07
2022-12-23T15:01:38.083Z,91.20
2022-12-23T15:05:14.047Z,83.30
2022-12-23T15:07:50.660Z,81.32
2022-12-23T15:10:34.301Z,79.50
2022-12-23T15:13:37.603Z,78.78
2022-12-23T15:16:11.448Z,76.25
2022-12-23T15:18:40.997Z,78.78
2022-12-23T15:21:14.575Z,64.82
2022-12-23T15:24:00.051Z,70.50
2022-12-23T15:26:31.856Z,75.82
2022-12-23T15:29:00.797Z,66.43
2022-12-23T15:31:40.404Z,85.72
2022-12-23T15:34:19.079Z,69.68
2022-12-23T15:36:54.338Z,72.93
2022-12-23T15:39:36.550Z,70.93
2022-12-23T15:42:06.993Z,86.90
2022-12-23T15:44:45.254Z,76.03
2022-12-23T15:47:43.664Z,79.75
2022-12-23T15:50:18.349Z,82.40
2022-12-23T15:52:52.539Z,117.70
2022-12-23T15:56:17.487Z,95.32
2022-12-23T15:58:23.650Z,75.57
2022-12-23T16:01:15.335Z,73.20
2022-12-23T16:04:09.144Z,73.65
2022-12-23T16:09:13.511Z,68.88
2022-12-23T16:11:58.909Z,59.28
2022-12-23T16:14:35.972Z,72.93
2022-12-23T16:17:08.919Z,71.07
2022-12-23T16:19:47.868Z,90.55
2022-12-23T16:22:23.283Z,78.05
2022-12-23T16:24:52.281Z,71.97
2022-12-23T16:27:40.372Z,67.63
2022-12-23T16:30:41.788Z,72.28
2022-12-23T16:33:45.481Z,85.43
2022-12-23T16:36:24.558Z,67.38
2022-12-23T16:38:59.040Z,91.30
2022-12-23T16:41:25.833Z,73.72
2022-12-23T16:43:55.047Z,67.05
2022-12-23T16:46:25.673Z,63.00
2022-12-23T16:48:59.978Z,73.03
2022-12-23T16:51:31.133Z,73.57
2022-12-23T16:54:00.209Z,82.45
2022-12-23T16:56:33.248Z,86.13
2022-12-23T16:58:59.893Z,91.63
2022-12-23T17:01:32.193Z,113.18
2022-12-23T17:04:00.937Z,96.32
2022-12-23T17:06:28.229Z,112.65
2022-12-23T17:08:56.783Z,97.72
2022-12-23T17:11:40.083Z,175.32
2022-12-23T17:14:11.984Z,108.00
2022-12-23T17:19:14.204Z,78.35
2022-12-23T17:21:42.896Z,68.40
2022-12-23T17:24:12.096Z,61.67
2022-12-23T17:26:41.170Z,73.15
2022-12-23T17:29:14.294Z,78.15
2022-12-23T17:31:45.390Z,70.05
2022-12-23T17:34:21.364Z,68.10
2022-12-23T17:36:53.380Z,65.80
2022-12-23T17:39:20.758Z,64.80
2022-12-23T17:41:50.455Z,79.35
2022-12-23T17:44:21.421Z,62.60
2022-12-23T17:46:50.584Z,66.38
2022-12-23T17:49:17.281Z,81.88
2022-12-23T17:51:44.036Z,69.85
2022-12-23T17:54:25.762Z,67.43
2022-12-23T17:56:54.863Z,66.15
2022-12-23T17:59:21.883Z,67.15
2022-12-23T18:01:51.319Z,70.15
2022-12-23T18:04:20.435Z,63.67
2022-12-23T18:06:49.508Z,75.25
2022-12-23T18:09:21.392Z,73.93
2022-12-23T18:11:50.665Z,68.38
2022-12-23T18:14:24.691Z,90.03
2022-12-23T18:16:51.465Z,81.93
2022-12-23T18:19:20.808Z,69.78
2022-12-23T18:24:14.407Z,82.10
2022-12-23T18:26:44.241Z,77.80
2022-12-23T18:29:13.271Z,68.85
2022-12-23T18:31:51.131Z,59.15
2022-12-23T18:34:19.795Z,69.38
2022-12-23T18:36:51.734Z,94.63
2022-12-23T18:39:18.890Z,92.50
2022-12-23T18:41:47.670Z,119.97
2022-12-23T18:44:20.635Z,148.35
2022-12-23T18:46:51.176Z,78.97
2022-12-23T18:49:18.276Z,103.32
2022-12-23T18:51:47.655Z,88.20
2022-12-23T18:54:20.269Z,116.40
2022-12-23T18:56:47.624Z,102.68
2022-12-23T18:59:29.313Z,103.57
2022-12-23T19:01:59.501Z,79.57
2022-12-23T19:04:29.742Z,93.38
2022-12-23T19:06:57.496Z,95.47
2022-12-23T19:09:25.152Z,146.77
2022-12-23T19:11:54.731Z,128.77
2022-12-23T19:14:21.376Z,193.00
2022-12-23T19:16:52.226Z,96.00
2022-12-23T19:19:19.425Z,149.07
2022-12-23T19:21:48.703Z,122.70
2022-12-23T19:24:18.136Z,167.18
2022-12-23T19:26:47.228Z,77.30
2022-12-23T19:29:16.217Z,101.32
2022-12-23T19:31:42.852Z,90.82
2022-12-23T19:34:15.445Z,70.47
2022-12-23T19:36:43.542Z,83.47
2022-12-23T19:39:16.695Z,69.43
2022-12-23T19:41:46.222Z,65.55
2022-12-23T19:46:39.631Z,87.53
2022-12-23T19:49:06.265Z,66.25
2022-12-23T19:51:32.891Z,110.63
2022-12-23T19:54:02.082Z,94.95
2022-12-23T19:59:01.171Z,114.68
2022-12-23T20:01:30.461Z,64.20
2022-12-23T20:04:11.561Z,92.07
2022-12-23T20:06:46.095Z,91.20
2022-12-23T20:09:13.671Z,94.90
2022-12-23T20:11:46.086Z,91.97
2022-12-23T20:14:15.212Z,56.80
2022-12-23T20:16:42.476Z,55.60
2022-12-23T20:19:09.607Z,66.47
2022-12-23T20:21:37.991Z,66.75
2022-12-23T20:24:06.250Z,99.22
2022-12-23T20:26:33.546Z,77.15
2022-12-23T20:29:02.625Z,69.43
2022-12-23T20:31:31.551Z,60.03
2022-12-23T20:33:58.904Z,117.85
2022-12-23T20:36:30.283Z,75.82
2022-12-23T20:38:57.476Z,65.20
2022-12-23T20:41:28.547Z,86.85
2022-12-23T20:44:32.323Z,67.72
2022-12-23T20:46:44.277Z,85.13
2022-12-23T20:49:15.885Z,70.13
2022-12-23T20:51:42.541Z,67.82
2022-12-23T20:54:11.753Z,59.28
2022-12-23T20:56:38.375Z,58.75
2022-12-23T20:59:07.365Z,53.03
2022-12-23T21:01:38.558Z,78.72
2022-12-23T21:04:08.630Z,93.78
2022-12-23T21:06:36.210Z,116.05
2022-12-23T21:09:09.272Z,63.90
2022-12-23T21:11:39.289Z,67.93
2022-12-23T21:14:07.432Z,106.28
2022-12-23T21:16:36.839Z,102.78
2022-12-23T21:19:05.004Z,80.35
2022-12-23T21:21:32.155Z,69.30
2022-12-23T21:24:01.193Z,69.35
2022-12-23T21:26:30.517Z,154.13
2022-12-23T21:31:32.177Z,130.57
2022-12-23T21:34:04.132Z,125.55
2022-12-23T21:36:39.498Z,84.68
2022-12-23T21:41:41.952Z,66.28
2022-12-23T21:44:10.135Z,99.85
2022-12-23T21:46:39.683Z,92.18
2022-12-23T21:49:06.382Z,94.82
2022-12-23T21:51:40.146Z,93.00
2022-12-23T21:54:11.354Z,100.13
2022-12-23T21:56:39.983Z,88.80
2022-12-23T21:59:13.291Z,104.80
2022-12-23T22:01:47.984Z,119.72
2022-12-23T22:04:16.861Z,79.82
2022-12-23T22:06:47.722Z,78.18
2022-12-23T22:09:22.129Z,75.25
2022-12-23T22:11:48.817Z,79.90
2022-12-23T22:14:19.702Z,66.97
2022-12-23T22:16:48.986Z,61.65
2022-12-23T22:19:15.867Z,70.13
2022-12-23T22:21:44.956Z,77.30
2022-12-23T22:24:12.052Z,63.00
2022-12-23T22:26:39.659Z,76.53
2022-12-23T22:29:09.613Z,80.13
2022-12-23T22:31:46.564Z,77.95
2022-12-23T22:34:19.265Z,83.65
2022-12-23T22:36:46.489Z,76.55
2022-12-23T22:39:19.995Z,68.95
2022-12-23T22:41:51.412Z,60.75
2022-12-23T22:44:18.668Z,51.55
2022-12-23T22:46:50.459Z,58.83
2022-12-23T22:49:22.082Z,62.55
2022-12-23T22:51:51.250Z,62.80
2022-12-23T22:54:17.916Z,72.13
2022-12-23T22:56:46.142Z,63.55
2022-12-23T22:59:24.335Z,63.17
2022-12-23T23:01:52.583Z,61.03
2022-12-23T23:04:24.448Z,62.25
2022-12-23T23:06:51.144Z,60.22
2022-12-23T23:09:24.535Z,65.03
2022-12-23T23:11:53.699Z,60.97
2022-12-23T23:14:22.608Z,61.85
2022-12-23T23:16:51.579Z,51.72
2022-12-23T23:19:20.804Z,55.20
2022-12-23T23:21:48.849Z,54.13
2022-12-23T23:24:15.799Z,53.35
2022-12-23T23:26:45.049Z,55.40
2022-12-23T23:31:43.303Z,59.05
2022-12-23T23:34:12.145Z,60.22
2022-12-23T23:36:39.460Z,56.90
2022-12-23T23:39:09.079Z,50.20
2022-12-23T23:41:38.308Z,52.22
2022-12-23T23:46:39.918Z,61.38
2022-12-23T23:49:08.964Z,71.32
2022-12-23T23:51:39.529Z,69.82
2022-12-23T23:54:09.154Z,61.90
2022-12-23T23:56:38.533Z,74.93
2022-12-23T23:59:11.021Z,85.93
